sensor_id;sensor_type;location;lat;lon;timestamp;P1;durP1;ratioP1;P2;durP2;ratioP2
9485;SDS011;4781;48.776;9.200;2023-04-15T00:01:49;4.05;;;1.35;;
9485;SDS011;4781;48.776;9.200;2023-04-15T00:04:17;3.33;;;1.47;;
9485;SDS011;4781;48.776;9.200;2023-04-15T00:06:50;4.08;;;1.30;;
9485;SDS011;4781;48.776;9.200;2023-04-15T00:09:19;4.67;;;1.30;;
9485;SDS011;4781;48.776;9.200;2023-04-15T00:11:49;4.65;;;2.15;;
9485;SDS011;4781;48.776;9.200;2023-04-15T00:14:17;6.17;;;2.10;;
9485;SDS011;4781;48.776;9.200;2023-04-15T00:16:46;5.70;;;2.17;;
9485;SDS011;4781;48.776;9.200;2023-04-15T00:19:16;5.83;;;2.20;;
9485;SDS011;4781;48.776;9.200;2023-04-15T00:21:44;4.15;;;1.72;;
9485;SDS011;4781;48.776;9.200;2023-04-15T00:24:12;3.83;;;1.77;;
9485;SDS011;4781;48.776;9.200;2023-04-15T00:26:41;9.15;;;2.40;;
9485;SDS011;4781;48.776;9.200;2023-04-15T00:29:09;3.83;;;1.47;;
9485;SDS011;4781;48.776;9.200;2023-04-15T00:31:38;5.08;;;1.87;;
9485;SDS011;4781;48.776;9.200;2023-04-15T00:34:07;4.40;;;1.57;;
9485;SDS011;4781;48.776;9.200;2023-04-15T00:36:35;4.10;;;2.10;;
9485;SDS011;4781;48.776;9.200;2023-04-15T00:39:03;5.92;;;1.75;;
9485;SDS011;4781;48.776;9.200;2023-04-15T00:41:32;6.03;;;1.60;;
9485;SDS011;4781;48.776;9.200;2023-04-15T00:44:02;5.75;;;1.80;;
9485;SDS011;4781;48.776;9.200;2023-04-15T00:46:32;3.83;;;1.65;;
9485;SDS011;4781;48.776;9.200;2023-04-15T00:49:05;5.55;;;2.45;;
9485;SDS011;4781;48.776;9.200;2023-04-15T00:51:33;6.20;;;2.02;;
9485;SDS011;4781;48.776;9.200;2023-04-15T00:54:02;7.67;;;1.92;;
9485;SDS011;4781;48.776;9.200;2023-04-15T00:56:38;4.08;;;1.70;;
9485;SDS011;4781;48.776;9.200;2023-04-15T00:59:04;4.72;;;1.72;;
9485;SDS011;4781;48.776;9.200;2023-04-15T01:01:33;6.10;;;1.95;;
9485;SDS011;4781;48.776;9.200;2023-04-15T01:04:03;5.00;;;1.72;;
9485;SDS011;4781;48.776;9.200;2023-04-15T01:06:31;4.55;;;1.82;;
9485;SDS011;4781;48.776;9.200;2023-04-15T01:09:00;4.47;;;1.98;;
9485;SDS011;4781;48.776;9.200;2023-04-15T01:11:29;3.98;;;1.75;;
9485;SDS011;4781;48.776;9.200;2023-04-15T01:13:59;8.48;;;1.60;;
9485;SDS011;4781;48.776;9.200;2023-04-15T01:16:27;6.47;;;1.60;;
9485;SDS011;4781;48.776;9.200;2023-04-15T01:18:56;6.12;;;2.05;;
9485;SDS011;4781;48.776;9.200;2023-04-15T01:21:24;4.80;;;1.75;;
9485;SDS011;4781;48.776;9.200;2023-04-15T01:23:53;7.35;;;1.60;;
9485;SDS011;4781;48.776;9.200;2023-04-15T01:26:23;4.47;;;1.92;;
9485;SDS011;4781;48.776;9.200;2023-04-15T01:28:52;5.25;;;1.60;;
9485;SDS011;4781;48.776;9.200;2023-04-15T01:31:21;5.78;;;1.92;;
9485;SDS011;4781;48.776;9.200;2023-04-15T01:33:49;5.42;;;2.20;;
9485;SDS011;4781;48.776;9.200;2023-04-15T01:36:19;3.50;;;1.77;;
9485;SDS011;4781;48.776;9.200;2023-04-15T01:38:48;5.12;;;2.02;;
9485;SDS011;4781;48.776;9.200;2023-04-15T01:41:20;5.42;;;2.10;;
9485;SDS011;4781;48.776;9.200;2023-04-15T01:43:53;3.90;;;1.67;;
9485;SDS011;4781;48.776;9.200;2023-04-15T01:46:22;4.50;;;1.82;;
9485;SDS011;4781;48.776;9.200;2023-04-15T01:48:50;4.28;;;1.75;;
9485;SDS011;4781;48.776;9.200;2023-04-15T01:51:18;3.15;;;1.55;;
9485;SDS011;4781;48.776;9.200;2023-04-15T01:53:47;4.42;;;1.60;;
9485;SDS011;4781;48.776;9.200;2023-04-15T01:56:15;6.22;;;1.65;;
9485;SDS011;4781;48.776;9.200;2023-04-15T01:58:44;6.35;;;1.90;;
9485;SDS011;4781;48.776;9.200;2023-04-15T02:01:12;4.60;;;2.10;;
9485;SDS011;4781;48.776;9.200;2023-04-15T02:03:41;4.40;;;2.42;;
9485;SDS011;4781;48.776;9.200;2023-04-15T02:06:10;3.92;;;1.77;;
9485;SDS011;4781;48.776;9.200;2023-04-15T02:08:38;8.80;;;2.37;;
9485;SDS011;4781;48.776;9.200;2023-04-15T02:11:06;5.33;;;1.92;;
9485;SDS011;4781;48.776;9.200;2023-04-15T02:13:35;4.75;;;1.67;;
9485;SDS011;4781;48.776;9.200;2023-04-15T02:16:04;6.03;;;1.75;;
9485;SDS011;4781;48.776;9.200;2023-04-15T02:18:43;3.58;;;1.60;;
9485;SDS011;4781;48.776;9.200;2023-04-15T02:21:12;4.62;;;1.75;;
9485;SDS011;4781;48.776;9.200;2023-04-15T02:23:41;8.08;;;2.42;;
9485;SDS011;4781;48.776;9.200;2023-04-15T02:26:09;4.05;;;1.57;;
9485;SDS011;4781;48.776;9.200;2023-04-15T02:28:37;6.47;;;2.08;;
9485;SDS011;4781;48.776;9.200;2023-04-15T02:31:06;8.45;;;1.82;;
9485;SDS011;4781;48.776;9.200;2023-04-15T02:33:34;3.33;;;1.95;;
9485;SDS011;4781;48.776;9.200;2023-04-15T02:36:03;5.83;;;2.05;;
9485;SDS011;4781;48.776;9.200;2023-04-15T02:38:33;5.92;;;1.80;;
9485;SDS011;4781;48.776;9.200;2023-04-15T02:41:02;4.85;;;2.12;;
9485;SDS011;4781;48.776;9.200;2023-04-15T02:43:31;6.30;;;1.95;;
9485;SDS011;4781;48.776;9.200;2023-04-15T02:45:59;5.92;;;2.17;;
9485;SDS011;4781;48.776;9.200;2023-04-15T02:48:28;5.47;;;1.75;;
9485;SDS011;4781;48.776;9.200;2023-04-15T02:51:15;3.52;;;1.95;;
9485;SDS011;4781;48.776;9.200;2023-04-15T02:53:46;3.95;;;1.92;;
9485;SDS011;4781;48.776;9.200;2023-04-15T02:56:15;2.62;;;1.27;;
9485;SDS011;4781;48.776;9.200;2023-04-15T02:58:44;5.53;;;1.80;;
9485;SDS011;4781;48.776;9.200;2023-04-15T03:01:14;5.15;;;1.90;;
9485;SDS011;4781;48.776;9.200;2023-04-15T03:03:43;4.70;;;2.05;;
9485;SDS011;4781;48.776;9.200;2023-04-15T03:06:11;5.37;;;1.92;;
9485;SDS011;4781;48.776;9.200;2023-04-15T03:08:39;4.78;;;2.27;;
9485;SDS011;4781;48.776;9.200;2023-04-15T03:11:08;3.30;;;1.80;;
9485;SDS011;4781;48.776;9.200;2023-04-15T03:13:37;5.35;;;1.98;;
9485;SDS011;4781;48.776;9.200;2023-04-15T03:16:06;5.20;;;1.75;;
9485;SDS011;4781;48.776;9.200;2023-04-15T03:18:35;5.72;;;1.72;;
9485;SDS011;4781;48.776;9.200;2023-04-15T03:21:04;4.80;;;1.87;;
9485;SDS011;4781;48.776;9.200;2023-04-15T03:23:33;3.00;;;1.52;;
9485;SDS011;4781;48.776;9.200;2023-04-15T03:26:01;4.33;;;1.80;;
9485;SDS011;4781;48.776;9.200;2023-04-15T03:28:30;4.50;;;1.80;;
9485;SDS011;4781;48.776;9.200;2023-04-15T03:30:59;6.40;;;2.08;;
9485;SDS011;4781;48.776;9.200;2023-04-15T03:33:27;9.08;;;2.00;;
9485;SDS011;4781;48.776;9.200;2023-04-15T03:35:56;7.72;;;2.67;;
9485;SDS011;4781;48.776;9.200;2023-04-15T03:38:24;4.40;;;1.90;;
9485;SDS011;4781;48.776;9.200;2023-04-15T03:40:53;6.08;;;1.85;;
9485;SDS011;4781;48.776;9.200;2023-04-15T03:43:21;4.37;;;1.87;;
9485;SDS011;4781;48.776;9.200;2023-04-15T03:45:50;4.95;;;1.90;;
9485;SDS011;4781;48.776;9.200;2023-04-15T03:48:18;6.20;;;1.92;;
9485;SDS011;4781;48.776;9.200;2023-04-15T03:50:47;4.47;;;2.20;;
9485;SDS011;4781;48.776;9.200;2023-04-15T03:53:15;8.83;;;2.65;;
9485;SDS011;4781;48.776;9.200;2023-04-15T03:55:44;5.33;;;2.20;;
9485;SDS011;4781;48.776;9.200;2023-04-15T03:58:12;4.60;;;2.25;;
9485;SDS011;4781;48.776;9.200;2023-04-15T04:00:41;3.65;;;2.00;;
9485;SDS011;4781;48.776;9.200;2023-04-15T04:03:09;3.52;;;1.60;;
9485;SDS011;4781;48.776;9.200;2023-04-15T04:05:39;6.87;;;1.90;;
9485;SDS011;4781;48.776;9.200;2023-04-15T04:08:09;6.40;;;2.17;;
9485;SDS011;4781;48.776;9.200;2023-04-15T04:10:38;4.00;;;1.72;;
9485;SDS011;4781;48.776;9.200;2023-04-15T04:13:07;5.28;;;2.25;;
9485;SDS011;4781;48.776;9.200;2023-04-15T04:15:35;7.85;;;2.25;;
9485;SDS011;4781;48.776;9.200;2023-04-15T04:18:04;4.03;;;1.82;;
9485;SDS011;4781;48.776;9.200;2023-04-15T04:20:32;6.33;;;2.12;;
9485;SDS011;4781;48.776;9.200;2023-04-15T04:23:01;5.33;;;1.90;;
9485;SDS011;4781;48.776;9.200;2023-04-15T04:25:29;5.55;;;2.00;;
9485;SDS011;4781;48.776;9.200;2023-04-15T04:27:58;4.60;;;2.15;;
9485;SDS011;4781;48.776;9.200;2023-04-15T04:30:26;6.25;;;2.08;;
9485;SDS011;4781;48.776;9.200;2023-04-15T04:32:55;4.12;;;2.00;;
9485;SDS011;4781;48.776;9.200;2023-04-15T04:35:23;3.87;;;1.60;;
9485;SDS011;4781;48.776;9.200;2023-04-15T04:37:52;5.50;;;2.15;;
9485;SDS011;4781;48.776;9.200;2023-04-15T04:40:23;3.83;;;1.85;;
9485;SDS011;4781;48.776;9.200;2023-04-15T04:42:52;4.37;;;1.77;;
9485;SDS011;4781;48.776;9.200;2023-04-15T04:45:21;3.67;;;1.82;;
9485;SDS011;4781;48.776;9.200;2023-04-15T04:47:49;4.37;;;1.80;;
9485;SDS011;4781;48.776;9.200;2023-04-15T04:50:17;4.45;;;2.25;;
9485;SDS011;4781;48.776;9.200;2023-04-15T04:52:46;4.08;;;1.72;;
9485;SDS011;4781;48.776;9.200;2023-04-15T04:55:14;5.62;;;2.40;;
9485;SDS011;4781;48.776;9.200;2023-04-15T04:57:43;8.20;;;2.20;;
9485;SDS011;4781;48.776;9.200;2023-04-15T05:00:11;7.47;;;2.37;;
9485;SDS011;4781;48.776;9.200;2023-04-15T05:02:40;4.05;;;1.60;;
9485;SDS011;4781;48.776;9.200;2023-04-15T05:05:09;8.05;;;2.00;;
9485;SDS011;4781;48.776;9.200;2023-04-15T05:07:38;6.47;;;2.40;;
9485;SDS011;4781;48.776;9.200;2023-04-15T05:10:07;4.00;;;1.57;;
9485;SDS011;4781;48.776;9.200;2023-04-15T05:12:36;2.70;;;1.45;;
9485;SDS011;4781;48.776;9.200;2023-04-15T05:15:04;3.95;;;1.82;;
9485;SDS011;4781;48.776;9.200;2023-04-15T05:17:34;5.42;;;1.85;;
9485;SDS011;4781;48.776;9.200;2023-04-15T05:20:02;3.65;;;1.70;;
9485;SDS011;4781;48.776;9.200;2023-04-15T05:22:31;4.10;;;2.15;;
9485;SDS011;4781;48.776;9.200;2023-04-15T05:25:02;4.87;;;1.70;;
9485;SDS011;4781;48.776;9.200;2023-04-15T05:27:31;3.60;;;1.62;;
9485;SDS011;4781;48.776;9.200;2023-04-15T05:30:00;4.80;;;2.12;;
9485;SDS011;4781;48.776;9.200;2023-04-15T05:32:28;6.40;;;1.82;;
9485;SDS011;4781;48.776;9.200;2023-04-15T05:34:56;3.70;;;1.67;;
9485;SDS011;4781;48.776;9.200;2023-04-15T05:37:25;4.05;;;1.65;;
9485;SDS011;4781;48.776;9.200;2023-04-15T05:39:53;4.60;;;1.80;;
9485;SDS011;4781;48.776;9.200;2023-04-15T05:42:22;4.17;;;1.67;;
9485;SDS011;4781;48.776;9.200;2023-04-15T05:44:51;3.02;;;1.60;;
9485;SDS011;4781;48.776;9.200;2023-04-15T05:47:19;7.72;;;1.95;;
9485;SDS011;4781;48.776;9.200;2023-04-15T05:49:47;4.70;;;2.05;;
9485;SDS011;4781;48.776;9.200;2023-04-15T05:52:16;5.47;;;2.02;;
9485;SDS011;4781;48.776;9.200;2023-04-15T05:54:44;5.05;;;1.70;;
9485;SDS011;4781;48.776;9.200;2023-04-15T05:57:13;4.70;;;1.70;;
9485;SDS011;4781;48.776;9.200;2023-04-15T05:59:41;8.58;;;2.00;;
9485;SDS011;4781;48.776;9.200;2023-04-15T06:02:09;8.18;;;1.82;;
9485;SDS011;4781;48.776;9.200;2023-04-15T06:04:38;4.92;;;1.90;;
9485;SDS011;4781;48.776;9.200;2023-04-15T06:07:07;4.87;;;1.92;;
9485;SDS011;4781;48.776;9.200;2023-04-15T06:09:35;3.58;;;1.50;;
9485;SDS011;4781;48.776;9.200;2023-04-15T06:12:04;3.67;;;1.92;;
9485;SDS011;4781;48.776;9.200;2023-04-15T06:14:34;8.10;;;2.25;;
9485;SDS011;4781;48.776;9.200;2023-04-15T06:17:02;4.53;;;2.05;;
9485;SDS011;4781;48.776;9.200;2023-04-15T06:19:30;4.17;;;2.27;;
9485;SDS011;4781;48.776;9.200;2023-04-15T06:21:59;9.13;;;2.65;;
9485;SDS011;4781;48.776;9.200;2023-04-15T06:24:28;6.60;;;2.67;;
9485;SDS011;4781;48.776;9.200;2023-04-15T06:26:57;7.37;;;2.80;;
9485;SDS011;4781;48.776;9.200;2023-04-15T06:29:27;9.95;;;3.35;;
9485;SDS011;4781;48.776;9.200;2023-04-15T06:31:55;7.42;;;3.02;;
9485;SDS011;4781;48.776;9.200;2023-04-15T06:34:23;7.97;;;3.45;;
9485;SDS011;4781;48.776;9.200;2023-04-15T06:36:52;8.45;;;3.17;;
9485;SDS011;4781;48.776;9.200;2023-04-15T06:39:20;7.33;;;2.95;;
9485;SDS011;4781;48.776;9.200;2023-04-15T06:41:49;7.80;;;3.42;;
9485;SDS011;4781;48.776;9.200;2023-04-15T06:44:17;6.75;;;2.98;;
9485;SDS011;4781;48.776;9.200;2023-04-15T06:46:46;6.42;;;3.50;;
9485;SDS011;4781;48.776;9.200;2023-04-15T06:49:15;6.50;;;2.85;;
9485;SDS011;4781;48.776;9.200;2023-04-15T06:51:43;5.05;;;2.60;;
9485;SDS011;4781;48.776;9.200;2023-04-15T06:54:12;6.83;;;2.80;;
9485;SDS011;4781;48.776;9.200;2023-04-15T06:56:40;5.00;;;2.75;;
9485;SDS011;4781;48.776;9.200;2023-04-15T06:59:09;6.85;;;2.98;;
9485;SDS011;4781;48.776;9.200;2023-04-15T07:01:37;8.28;;;3.12;;
9485;SDS011;4781;48.776;9.200;2023-04-15T07:04:07;7.22;;;2.45;;
9485;SDS011;4781;48.776;9.200;2023-04-15T07:06:36;6.72;;;2.67;;
9485;SDS011;4781;48.776;9.200;2023-04-15T07:09:04;7.67;;;3.33;;
9485;SDS011;4781;48.776;9.200;2023-04-15T07:11:33;10.05;;;3.00;;
9485;SDS011;4781;48.776;9.200;2023-04-15T07:14:02;7.87;;;2.60;;
9485;SDS011;4781;48.776;9.200;2023-04-15T07:16:30;8.23;;;2.80;;
9485;SDS011;4781;48.776;9.200;2023-04-15T07:18:58;6.85;;;2.77;;
9485;SDS011;4781;48.776;9.200;2023-04-15T07:21:27;5.80;;;2.45;;
9485;SDS011;4781;48.776;9.200;2023-04-15T07:23:55;7.62;;;3.00;;
9485;SDS011;4781;48.776;9.200;2023-04-15T07:26:23;8.28;;;3.20;;
9485;SDS011;4781;48.776;9.200;2023-04-15T07:28:52;4.35;;;2.55;;
9485;SDS011;4781;48.776;9.200;2023-04-15T07:31:20;7.28;;;2.77;;
9485;SDS011;4781;48.776;9.200;2023-04-15T07:33:48;6.55;;;2.45;;
9485;SDS011;4781;48.776;9.200;2023-04-15T07:36:17;7.10;;;2.98;;
9485;SDS011;4781;48.776;9.200;2023-04-15T07:38:45;6.12;;;2.65;;
9485;SDS011;4781;48.776;9.200;2023-04-15T07:41:13;4.95;;;2.35;;
9485;SDS011;4781;48.776;9.200;2023-04-15T07:43:42;9.33;;;2.85;;
9485;SDS011;4781;48.776;9.200;2023-04-15T07:46:10;5.62;;;2.65;;
9485;SDS011;4781;48.776;9.200;2023-04-15T07:48:39;5.37;;;2.70;;
9485;SDS011;4781;48.776;9.200;2023-04-15T07:51:07;6.60;;;2.67;;
9485;SDS011;4781;48.776;9.200;2023-04-15T07:53:36;7.25;;;2.62;;
9485;SDS011;4781;48.776;9.200;2023-04-15T07:56:04;5.53;;;2.55;;
9485;SDS011;4781;48.776;9.200;2023-04-15T07:58:32;5.05;;;2.40;;
9485;SDS011;4781;48.776;9.200;2023-04-15T08:01:03;9.33;;;2.70;;
9485;SDS011;4781;48.776;9.200;2023-04-15T08:03:31;5.45;;;2.37;;
9485;SDS011;4781;48.776;9.200;2023-04-15T08:06:00;4.40;;;2.30;;
9485;SDS011;4781;48.776;9.200;2023-04-15T08:08:28;5.83;;;2.33;;
9485;SDS011;4781;48.776;9.200;2023-04-15T08:10:57;4.83;;;2.27;;
9485;SDS011;4781;48.776;9.200;2023-04-15T08:13:25;8.93;;;2.92;;
9485;SDS011;4781;48.776;9.200;2023-04-15T08:18:55;6.28;;;2.05;;
9485;SDS011;4781;48.776;9.200;2023-04-15T08:21:22;6.70;;;2.65;;
9485;SDS011;4781;48.776;9.200;2023-04-15T08:23:51;5.03;;;2.20;;
9485;SDS011;4781;48.776;9.200;2023-04-15T08:26:20;4.60;;;2.37;;
9485;SDS011;4781;48.776;9.200;2023-04-15T08:28:49;7.85;;;2.50;;
9485;SDS011;4781;48.776;9.200;2023-04-15T08:31:17;6.40;;;2.40;;
9485;SDS011;4781;48.776;9.200;2023-04-15T08:33:46;9.30;;;2.60;;
9485;SDS011;4781;48.776;9.200;2023-04-15T08:36:16;8.13;;;2.55;;
9485;SDS011;4781;48.776;9.200;2023-04-15T08:38:46;6.85;;;2.30;;
9485;SDS011;4781;48.776;9.200;2023-04-15T08:41:19;6.53;;;2.08;;
9485;SDS011;4781;48.776;9.200;2023-04-15T08:43:56;5.08;;;2.50;;
9485;SDS011;4781;48.776;9.200;2023-04-15T08:46:28;5.15;;;2.30;;
9485;SDS011;4781;48.776;9.200;2023-04-15T08:49:02;6.60;;;2.83;;
9485;SDS011;4781;48.776;9.200;2023-04-15T08:51:32;8.13;;;2.40;;
9485;SDS011;4781;48.776;9.200;2023-04-15T08:54:01;8.38;;;1.95;;
9485;SDS011;4781;48.776;9.200;2023-04-15T08:56:31;5.87;;;2.05;;
9485;SDS011;4781;48.776;9.200;2023-04-15T08:59:00;4.25;;;1.87;;
9485;SDS011;4781;48.776;9.200;2023-04-15T09:01:30;7.30;;;2.15;;
9485;SDS011;4781;48.776;9.200;2023-04-15T09:03:59;4.90;;;2.30;;
9485;SDS011;4781;48.776;9.200;2023-04-15T09:06:31;3.90;;;1.80;;
9485;SDS011;4781;48.776;9.200;2023-04-15T09:09:00;5.90;;;2.77;;
9485;SDS011;4781;48.776;9.200;2023-04-15T09:11:29;6.90;;;2.40;;
9485;SDS011;4781;48.776;9.200;2023-04-15T09:13:57;4.80;;;2.10;;
9485;SDS011;4781;48.776;9.200;2023-04-15T09:16:26;6.35;;;2.60;;
9485;SDS011;4781;48.776;9.200;2023-04-15T09:18:54;4.85;;;1.80;;
9485;SDS011;4781;48.776;9.200;2023-04-15T09:21:23;5.58;;;2.00;;
9485;SDS011;4781;48.776;9.200;2023-04-15T09:23:56;6.50;;;2.30;;
9485;SDS011;4781;48.776;9.200;2023-04-15T09:26:33;3.10;;;1.70;;
9485;SDS011;4781;48.776;9.200;2023-04-15T09:29:05;7.83;;;2.12;;
9485;SDS011;4781;48.776;9.200;2023-04-15T09:31:40;4.78;;;2.25;;
9485;SDS011;4781;48.776;9.200;2023-04-15T09:34:09;5.83;;;1.92;;
9485;SDS011;4781;48.776;9.200;2023-04-15T09:36:56;7.42;;;2.00;;
9485;SDS011;4781;48.776;9.200;2023-04-15T09:39:23;3.60;;;1.80;;
9485;SDS011;4781;48.776;9.200;2023-04-15T09:42:54;5.03;;;1.62;;
9485;SDS011;4781;48.776;9.200;2023-04-15T09:45:23;3.40;;;1.57;;
9485;SDS011;4781;48.776;9.200;2023-04-15T09:47:52;6.95;;;2.10;;
9485;SDS011;4781;48.776;9.200;2023-04-15T09:50:20;3.37;;;1.50;;
9485;SDS011;4781;48.776;9.200;2023-04-15T09:52:49;6.83;;;1.95;;
9485;SDS011;4781;48.776;9.200;2023-04-15T09:55:17;3.35;;;1.50;;
9485;SDS011;4781;48.776;9.200;2023-04-15T09:57:45;4.55;;;1.80;;
9485;SDS011;4781;48.776;9.200;2023-04-15T10:00:14;3.62;;;1.50;;
9485;SDS011;4781;48.776;9.200;2023-04-15T10:02:42;4.45;;;1.87;;
9485;SDS011;4781;48.776;9.200;2023-04-15T10:05:13;3.08;;;1.42;;
9485;SDS011;4781;48.776;9.200;2023-04-15T10:07:42;3.50;;;1.62;;
9485;SDS011;4781;48.776;9.200;2023-04-15T10:10:11;3.58;;;1.82;;
9485;SDS011;4781;48.776;9.200;2023-04-15T10:12:41;4.33;;;1.42;;
9485;SDS011;4781;48.776;9.200;2023-04-15T10:15:13;2.98;;;1.27;;
9485;SDS011;4781;48.776;9.200;2023-04-15T10:17:43;5.12;;;1.62;;
9485;SDS011;4781;48.776;9.200;2023-04-15T10:20:12;4.05;;;1.70;;
9485;SDS011;4781;48.776;9.200;2023-04-15T10:22:43;4.05;;;1.70;;
9485;SDS011;4781;48.776;9.200;2023-04-15T10:25:13;4.72;;;1.60;;
9485;SDS011;4781;48.776;9.200;2023-04-15T10:27:42;3.52;;;1.45;;
9485;SDS011;4781;48.776;9.200;2023-04-15T10:30:13;5.58;;;1.50;;
9485;SDS011;4781;48.776;9.200;2023-04-15T10:32:42;6.25;;;1.57;;
9485;SDS011;4781;48.776;9.200;2023-04-15T10:35:12;4.78;;;1.65;;
9485;SDS011;4781;48.776;9.200;2023-04-15T10:37:41;3.27;;;1.77;;
9485;SDS011;4781;48.776;9.200;2023-04-15T10:40:28;7.17;;;1.60;;
9485;SDS011;4781;48.776;9.200;2023-04-15T10:43:00;3.83;;;1.57;;
9485;SDS011;4781;48.776;9.200;2023-04-15T10:45:33;4.28;;;2.17;;
9485;SDS011;4781;48.776;9.200;2023-04-15T10:48:04;4.40;;;1.80;;
9485;SDS011;4781;48.776;9.200;2023-04-15T10:50:34;3.33;;;1.40;;
9485;SDS011;4781;48.776;9.200;2023-04-15T10:53:05;3.67;;;1.50;;
9485;SDS011;4781;48.776;9.200;2023-04-15T10:55:37;4.60;;;1.50;;
9485;SDS011;4781;48.776;9.200;2023-04-15T10:58:05;4.15;;;1.20;;
9485;SDS011;4781;48.776;9.200;2023-04-15T11:00:35;6.25;;;1.52;;
9485;SDS011;4781;48.776;9.200;2023-04-15T11:03:05;3.40;;;1.27;;
9485;SDS011;4781;48.776;9.200;2023-04-15T11:08:19;3.92;;;1.40;;
9485;SDS011;4781;48.776;9.200;2023-04-15T11:10:51;6.40;;;1.70;;
9485;SDS011;4781;48.776;9.200;2023-04-15T11:13:20;4.00;;;1.37;;
9485;SDS011;4781;48.776;9.200;2023-04-15T11:15:54;5.75;;;1.82;;
9485;SDS011;4781;48.776;9.200;2023-04-15T11:18:27;5.30;;;1.67;;
9485;SDS011;4781;48.776;9.200;2023-04-15T11:20:59;6.87;;;1.98;;
9485;SDS011;4781;48.776;9.200;2023-04-15T11:23:31;6.50;;;1.87;;
9485;SDS011;4781;48.776;9.200;2023-04-15T11:26:09;9.23;;;2.52;;
9485;SDS011;4781;48.776;9.200;2023-04-15T11:28:39;4.65;;;1.72;;
9485;SDS011;4781;48.776;9.200;2023-04-15T11:31:10;5.80;;;2.02;;
9485;SDS011;4781;48.776;9.200;2023-04-15T11:36:20;3.05;;;1.32;;
9485;SDS011;4781;48.776;9.200;2023-04-15T11:39:00;3.47;;;1.52;;
9485;SDS011;4781;48.776;9.200;2023-04-15T11:41:28;3.50;;;1.70;;
9485;SDS011;4781;48.776;9.200;2023-04-15T11:43:57;3.80;;;1.40;;
9485;SDS011;4781;48.776;9.200;2023-04-15T11:46:29;3.50;;;1.65;;
9485;SDS011;4781;48.776;9.200;2023-04-15T11:48:57;3.67;;;1.37;;
9485;SDS011;4781;48.776;9.200;2023-04-15T11:51:26;3.77;;;1.50;;
9485;SDS011;4781;48.776;9.200;2023-04-15T11:54:00;3.77;;;1.52;;
9485;SDS011;4781;48.776;9.200;2023-04-15T11:56:29;3.20;;;1.50;;
9485;SDS011;4781;48.776;9.200;2023-04-15T11:58:57;3.45;;;1.60;;
9485;SDS011;4781;48.776;9.200;2023-04-15T12:01:30;2.47;;;1.42;;
9485;SDS011;4781;48.776;9.200;2023-04-15T12:04:10;3.75;;;1.65;;
9485;SDS011;4781;48.776;9.200;2023-04-15T12:06:46;3.45;;;1.70;;
9485;SDS011;4781;48.776;9.200;2023-04-15T12:09:15;5.00;;;2.25;;
9485;SDS011;4781;48.776;9.200;2023-04-15T12:11:45;4.42;;;1.85;;
9485;SDS011;4781;48.776;9.200;2023-04-15T12:14:19;10.13;;;2.00;;
9485;SDS011;4781;48.776;9.200;2023-04-15T12:16:57;4.55;;;2.22;;
9485;SDS011;4781;48.776;9.200;2023-04-15T12:22:02;4.03;;;1.80;;
9485;SDS011;4781;48.776;9.200;2023-04-15T12:24:35;3.60;;;1.80;;
9485;SDS011;4781;48.776;9.200;2023-04-15T12:27:05;4.28;;;1.75;;
9485;SDS011;4781;48.776;9.200;2023-04-15T12:29:36;5.45;;;1.50;;
9485;SDS011;4781;48.776;9.200;2023-04-15T12:32:07;4.12;;;1.70;;
9485;SDS011;4781;48.776;9.200;2023-04-15T12:34:38;2.83;;;1.57;;
9485;SDS011;4781;48.776;9.200;2023-04-15T12:37:22;5.28;;;1.57;;
9485;SDS011;4781;48.776;9.200;2023-04-15T12:39:51;3.30;;;1.52;;
9485;SDS011;4781;48.776;9.200;2023-04-15T12:42:19;4.53;;;1.85;;
9485;SDS011;4781;48.776;9.200;2023-04-15T12:44:48;4.60;;;1.87;;
9485;SDS011;4781;48.776;9.200;2023-04-15T12:47:16;2.90;;;1.72;;
9485;SDS011;4781;48.776;9.200;2023-04-15T12:49:45;3.33;;;1.75;;
9485;SDS011;4781;48.776;9.200;2023-04-15T12:52:14;3.80;;;1.72;;
9485;SDS011;4781;48.776;9.200;2023-04-15T12:54:42;2.40;;;1.55;;
9485;SDS011;4781;48.776;9.200;2023-04-15T12:57:11;5.78;;;1.70;;
9485;SDS011;4781;48.776;9.200;2023-04-15T12:59:39;4.10;;;1.72;;
9485;SDS011;4781;48.776;9.200;2023-04-15T13:02:07;3.95;;;1.80;;
9485;SDS011;4781;48.776;9.200;2023-04-15T13:04:36;5.03;;;1.60;;
9485;SDS011;4781;48.776;9.200;2023-04-15T13:07:04;3.02;;;1.62;;
9485;SDS011;4781;48.776;9.200;2023-04-15T13:09:33;2.72;;;1.45;;
9485;SDS011;4781;48.776;9.200;2023-04-15T13:12:02;3.40;;;1.87;;
9485;SDS011;4781;48.776;9.200;2023-04-15T13:14:31;3.15;;;1.60;;
9485;SDS011;4781;48.776;9.200;2023-04-15T13:16:59;3.33;;;1.70;;
9485;SDS011;4781;48.776;9.200;2023-04-15T13:19:29;2.77;;;1.60;;
9485;SDS011;4781;48.776;9.200;2023-04-15T13:21:58;6.97;;;1.90;;
9485;SDS011;4781;48.776;9.200;2023-04-15T13:24:26;3.80;;;1.60;;
9485;SDS011;4781;48.776;9.200;2023-04-15T13:26:54;4.30;;;1.47;;
9485;SDS011;4781;48.776;9.200;2023-04-15T13:29:24;3.52;;;1.75;;
9485;SDS011;4781;48.776;9.200;2023-04-15T13:31:52;3.65;;;1.45;;
9485;SDS011;4781;48.776;9.200;2023-04-15T13:34:21;2.37;;;1.37;;
9485;SDS011;4781;48.776;9.200;2023-04-15T13:36:49;4.50;;;1.37;;
9485;SDS011;4781;48.776;9.200;2023-04-15T13:39:18;3.35;;;1.40;;
9485;SDS011;4781;48.776;9.200;2023-04-15T13:41:46;4.00;;;1.50;;
9485;SDS011;4781;48.776;9.200;2023-04-15T13:44:15;3.20;;;1.07;;
9485;SDS011;4781;48.776;9.200;2023-04-15T13:46:43;1.55;;;1.00;;
9485;SDS011;4781;48.776;9.200;2023-04-15T13:49:11;2.37;;;0.90;;
9485;SDS011;4781;48.776;9.200;2023-04-15T13:51:40;3.15;;;1.10;;
9485;SDS011;4781;48.776;9.200;2023-04-15T13:54:09;2.27;;;0.90;;
9485;SDS011;4781;48.776;9.200;2023-04-15T13:56:37;2.40;;;1.00;;
9485;SDS011;4781;48.776;9.200;2023-04-15T13:59:05;3.02;;;0.98;;
9485;SDS011;4781;48.776;9.200;2023-04-15T14:01:34;1.40;;;0.85;;
9485;SDS011;4781;48.776;9.200;2023-04-15T14:04:02;2.70;;;0.90;;
9485;SDS011;4781;48.776;9.200;2023-04-15T14:06:31;2.00;;;1.02;;
9485;SDS011;4781;48.776;9.200;2023-04-15T14:08:59;2.08;;;0.80;;
9485;SDS011;4781;48.776;9.200;2023-04-15T14:11:28;2.15;;;0.90;;
9485;SDS011;4781;48.776;9.200;2023-04-15T14:13:56;2.75;;;1.35;;
9485;SDS011;4781;48.776;9.200;2023-04-15T14:16:25;4.25;;;0.90;;
9485;SDS011;4781;48.776;9.200;2023-04-15T14:18:53;1.00;;;0.62;;
9485;SDS011;4781;48.776;9.200;2023-04-15T14:21:22;2.47;;;0.75;;
9485;SDS011;4781;48.776;9.200;2023-04-15T14:23:52;1.65;;;0.80;;
9485;SDS011;4781;48.776;9.200;2023-04-15T14:26:21;0.80;;;0.50;;
9485;SDS011;4781;48.776;9.200;2023-04-15T14:28:49;1.20;;;0.80;;
9485;SDS011;4781;48.776;9.200;2023-04-15T14:31:18;2.67;;;0.90;;
9485;SDS011;4781;48.776;9.200;2023-04-15T14:33:46;2.08;;;0.85;;
9485;SDS011;4781;48.776;9.200;2023-04-15T14:36:14;1.52;;;0.80;;
9485;SDS011;4781;48.776;9.200;2023-04-15T14:38:43;1.47;;;0.80;;
9485;SDS011;4781;48.776;9.200;2023-04-15T14:41:11;2.52;;;0.98;;
9485;SDS011;4781;48.776;9.200;2023-04-15T14:43:40;1.87;;;1.00;;
9485;SDS011;4781;48.776;9.200;2023-04-15T14:46:09;1.45;;;0.85;;
9485;SDS011;4781;48.776;9.200;2023-04-15T14:48:39;2.65;;;1.02;;
9485;SDS011;4781;48.776;9.200;2023-04-15T14:51:08;1.27;;;0.72;;
9485;SDS011;4781;48.776;9.200;2023-04-15T14:53:36;1.85;;;0.80;;
9485;SDS011;4781;48.776;9.200;2023-04-15T14:56:05;1.27;;;0.72;;
9485;SDS011;4781;48.776;9.200;2023-04-15T14:58:33;0.98;;;0.65;;
9485;SDS011;4781;48.776;9.200;2023-04-15T15:01:02;2.02;;;0.98;;
9485;SDS011;4781;48.776;9.200;2023-04-15T15:03:31;2.08;;;1.12;;
9485;SDS011;4781;48.776;9.200;2023-04-15T15:06:00;1.90;;;1.02;;
9485;SDS011;4781;48.776;9.200;2023-04-15T15:08:28;2.00;;;1.00;;
9485;SDS011;4781;48.776;9.200;2023-04-15T15:10:57;2.15;;;1.02;;
9485;SDS011;4781;48.776;9.200;2023-04-15T15:13:25;1.60;;;1.02;;
9485;SDS011;4781;48.776;9.200;2023-04-15T15:15:54;2.30;;;1.10;;
9485;SDS011;4781;48.776;9.200;2023-04-15T15:18:23;2.17;;;1.00;;
9485;SDS011;4781;48.776;9.200;2023-04-15T15:20:52;2.15;;;1.10;;
9485;SDS011;4781;48.776;9.200;2023-04-15T15:23:20;2.30;;;1.05;;
9485;SDS011;4781;48.776;9.200;2023-04-15T15:25:49;2.02;;;1.00;;
9485;SDS011;4781;48.776;9.200;2023-04-15T15:28:17;3.75;;;1.07;;
9485;SDS011;4781;48.776;9.200;2023-04-15T15:30:46;2.37;;;0.95;;
9485;SDS011;4781;48.776;9.200;2023-04-15T15:33:15;1.95;;;1.00;;
9485;SDS011;4781;48.776;9.200;2023-04-15T15:35:43;2.25;;;1.07;;
9485;SDS011;4781;48.776;9.200;2023-04-15T15:38:12;2.27;;;1.27;;
9485;SDS011;4781;48.776;9.200;2023-04-15T15:40:40;2.77;;;1.10;;